sensor_id;sensor_type;location;lat;lon;timestamp;P1;durP1;ratioP1;P2;durP2;ratioP2
12348;SDS011;5974;42.710;27.258;2024-03-22T00:02:14;4.13;;;3.83;;
12348;SDS011;5974;42.710;27.258;2024-03-22T00:04:41;4.17;;;3.77;;
12348;SDS011;5974;42.710;27.258;2024-03-22T00:07:06;3.90;;;3.60;;
12348;SDS011;5974;42.710;27.258;2024-03-22T00:09:33;3.67;;;3.37;;
12348;SDS011;5974;42.710;27.258;2024-03-22T00:11:59;3.40;;;3.20;;
12348;SDS011;5974;42.710;27.258;2024-03-22T00:14:26;4.13;;;3.83;;
12348;SDS011;5974;42.710;27.258;2024-03-22T00:16:53;4.20;;;3.90;;
12348;SDS011;5974;42.710;27.258;2024-03-22T00:19:19;4.47;;;4.07;;
12348;SDS011;5974;42.710;27.258;2024-03-22T00:21:45;4.30;;;4.00;;
12348;SDS011;5974;42.710;27.258;2024-03-22T00:24:12;3.97;;;3.67;;
12348;SDS011;5974;42.710;27.258;2024-03-22T00:26:37;4.40;;;4.00;;
12348;SDS011;5974;42.710;27.258;2024-03-22T00:29:04;4.53;;;4.13;;
12348;SDS011;5974;42.710;27.258;2024-03-22T00:31:30;4.60;;;4.20;;
12348;SDS011;5974;42.710;27.258;2024-03-22T00:33:58;4.67;;;4.27;;
12348;SDS011;5974;42.710;27.258;2024-03-22T00:36:24;4.53;;;4.13;;
12348;SDS011;5974;42.710;27.258;2024-03-22T00:38:50;4.03;;;3.73;;
12348;SDS011;5974;42.710;27.258;2024-03-22T00:41:16;4.00;;;3.70;;
12348;SDS011;5974;42.710;27.258;2024-03-22T00:43:43;3.80;;;3.50;;
12348;SDS011;5974;42.710;27.258;2024-03-22T00:46:09;4.30;;;4.00;;
12348;SDS011;5974;42.710;27.258;2024-03-22T00:48:35;4.53;;;4.20;;
12348;SDS011;5974;42.710;27.258;2024-03-22T00:51:03;4.60;;;4.20;;
12348;SDS011;5974;42.710;27.258;2024-03-22T00:53:30;4.50;;;4.10;;
12348;SDS011;5974;42.710;27.258;2024-03-22T00:55:56;4.27;;;3.90;;
12348;SDS011;5974;42.710;27.258;2024-03-22T00:58:25;5.13;;;4.73;;
12348;SDS011;5974;42.710;27.258;2024-03-22T01:00:52;4.17;;;3.87;;
12348;SDS011;5974;42.710;27.258;2024-03-22T01:03:18;4.23;;;3.93;;
12348;SDS011;5974;42.710;27.258;2024-03-22T01:05:44;4.53;;;4.13;;
12348;SDS011;5974;42.710;27.258;2024-03-22T01:08:13;4.53;;;4.23;;
12348;SDS011;5974;42.710;27.258;2024-03-22T01:10:38;4.13;;;3.83;;
12348;SDS011;5974;42.710;27.258;2024-03-22T01:13:06;4.83;;;4.43;;
12348;SDS011;5974;42.710;27.258;2024-03-22T01:15:32;5.07;;;4.67;;
12348;SDS011;5974;42.710;27.258;2024-03-22T01:17:58;4.83;;;4.20;;
12348;SDS011;5974;42.710;27.258;2024-03-22T01:20:24;5.07;;;4.57;;
12348;SDS011;5974;42.710;27.258;2024-03-22T01:22:51;5.10;;;4.70;;
12348;SDS011;5974;42.710;27.258;2024-03-22T01:25:18;5.03;;;4.57;;
12348;SDS011;5974;42.710;27.258;2024-03-22T01:27:45;5.13;;;4.70;;
12348;SDS011;5974;42.710;27.258;2024-03-22T01:30:10;5.63;;;5.13;;
12348;SDS011;5974;42.710;27.258;2024-03-22T01:32:37;7.20;;;6.60;;
12348;SDS011;5974;42.710;27.258;2024-03-22T01:35:03;10.47;;;9.47;;
12348;SDS011;5974;42.710;27.258;2024-03-22T01:37:30;10.53;;;9.53;;
12348;SDS011;5974;42.710;27.258;2024-03-22T01:39:56;7.77;;;7.07;;
12348;SDS011;5974;42.710;27.258;2024-03-22T01:42:24;5.93;;;5.43;;
12348;SDS011;5974;42.710;27.258;2024-03-22T01:44:50;6.43;;;5.83;;
12348;SDS011;5974;42.710;27.258;2024-03-22T01:47:17;5.50;;;5.00;;
12348;SDS011;5974;42.710;27.258;2024-03-22T01:49:43;4.83;;;4.43;;
12348;SDS011;5974;42.710;27.258;2024-03-22T01:52:09;5.00;;;4.60;;
12348;SDS011;5974;42.710;27.258;2024-03-22T01:54:35;5.03;;;4.63;;
12348;SDS011;5974;42.710;27.258;2024-03-22T01:57:02;4.90;;;4.50;;
12348;SDS011;5974;42.710;27.258;2024-03-22T01:59:30;5.30;;;4.80;;
12348;SDS011;5974;42.710;27.258;2024-03-22T02:01:57;5.73;;;4.77;;
12348;SDS011;5974;42.710;27.258;2024-03-22T02:04:23;5.13;;;4.63;;
12348;SDS011;5974;42.710;27.258;2024-03-22T02:06:50;5.43;;;4.93;;
12348;SDS011;5974;42.710;27.258;2024-03-22T02:09:15;4.70;;;4.30;;
12348;SDS011;5974;42.710;27.258;2024-03-22T02:11:42;5.20;;;4.80;;
12348;SDS011;5974;42.710;27.258;2024-03-22T02:14:08;5.73;;;5.17;;
12348;SDS011;5974;42.710;27.258;2024-03-22T02:16:36;5.63;;;5.13;;
12348;SDS011;5974;42.710;27.258;2024-03-22T02:19:04;5.70;;;5.20;;
12348;SDS011;5974;42.710;27.258;2024-03-22T02:21:31;5.90;;;5.37;;
12348;SDS011;5974;42.710;27.258;2024-03-22T02:23:58;6.10;;;5.50;;
12348;SDS011;5974;42.710;27.258;2024-03-22T02:26:25;5.37;;;4.70;;
12348;SDS011;5974;42.710;27.258;2024-03-22T02:28:50;5.47;;;4.97;;
12348;SDS011;5974;42.710;27.258;2024-03-22T02:31:17;5.63;;;5.13;;
12348;SDS011;5974;42.710;27.258;2024-03-22T02:33:45;5.37;;;4.93;;
12348;SDS011;5974;42.710;27.258;2024-03-22T02:36:12;5.07;;;4.67;;
12348;SDS011;5974;42.710;27.258;2024-03-22T02:38:37;5.53;;;5.03;;
12348;SDS011;5974;42.710;27.258;2024-03-22T02:41:05;6.00;;;5.40;;
12348;SDS011;5974;42.710;27.258;2024-03-22T02:43:31;5.70;;;5.20;;
12348;SDS011;5974;42.710;27.258;2024-03-22T02:45:58;5.77;;;5.27;;
12348;SDS011;5974;42.710;27.258;2024-03-22T02:48:23;5.57;;;5.07;;
12348;SDS011;5974;42.710;27.258;2024-03-22T02:50:54;5.50;;;5.00;;
12348;SDS011;5974;42.710;27.258;2024-03-22T02:53:20;5.33;;;4.83;;
12348;SDS011;5974;42.710;27.258;2024-03-22T02:55:47;5.70;;;5.20;;
12348;SDS011;5974;42.710;27.258;2024-03-22T02:58:14;5.77;;;5.27;;
12348;SDS011;5974;42.710;27.258;2024-03-22T03:00:41;5.27;;;4.73;;
12348;SDS011;5974;42.710;27.258;2024-03-22T03:03:07;5.70;;;5.20;;
12348;SDS011;5974;42.710;27.258;2024-03-22T03:05:34;5.73;;;5.23;;
12348;SDS011;5974;42.710;27.258;2024-03-22T03:08:00;5.80;;;5.30;;
12348;SDS011;5974;42.710;27.258;2024-03-22T03:10:28;5.50;;;5.00;;
12348;SDS011;5974;42.710;27.258;2024-03-22T03:12:55;5.70;;;5.20;;
12348;SDS011;5974;42.710;27.258;2024-03-22T03:15:23;6.13;;;5.53;;
12348;SDS011;5974;42.710;27.258;2024-03-22T03:17:49;7.23;;;5.30;;
12348;SDS011;5974;42.710;27.258;2024-03-22T03:20:17;5.70;;;5.20;;
12348;SDS011;5974;42.710;27.258;2024-03-22T03:22:43;5.97;;;5.40;;
12348;SDS011;5974;42.710;27.258;2024-03-22T03:25:10;6.17;;;5.43;;
12348;SDS011;5974;42.710;27.258;2024-03-22T03:27:35;6.37;;;5.77;;
12348;SDS011;5974;42.710;27.258;2024-03-22T03:30:02;6.47;;;5.93;;
12348;SDS011;5974;42.710;27.258;2024-03-22T03:32:31;6.57;;;5.87;;
12348;SDS011;5974;42.710;27.258;2024-03-22T03:34:58;6.03;;;5.53;;
12348;SDS011;5974;42.710;27.258;2024-03-22T03:37:23;8.97;;;6.23;;
12348;SDS011;5974;42.710;27.258;2024-03-22T03:39:50;7.10;;;6.33;;
12348;SDS011;5974;42.710;27.258;2024-03-22T03:42:16;6.70;;;6.03;;
12348;SDS011;5974;42.710;27.258;2024-03-22T03:44:42;6.77;;;5.90;;
12348;SDS011;5974;42.710;27.258;2024-03-22T03:47:08;7.63;;;6.17;;
12348;SDS011;5974;42.710;27.258;2024-03-22T03:49:36;7.93;;;6.40;;
12348;SDS011;5974;42.710;27.258;2024-03-22T03:52:02;6.10;;;5.50;;
12348;SDS011;5974;42.710;27.258;2024-03-22T03:54:29;6.37;;;5.87;;
12348;SDS011;5974;42.710;27.258;2024-03-22T03:56:55;6.83;;;6.13;;
12348;SDS011;5974;42.710;27.258;2024-03-22T03:59:21;6.13;;;5.57;;
12348;SDS011;5974;42.710;27.258;2024-03-22T04:01:48;6.60;;;5.90;;
12348;SDS011;5974;42.710;27.258;2024-03-22T04:04:15;6.47;;;5.80;;
12348;SDS011;5974;42.710;27.258;2024-03-22T04:06:43;6.00;;;5.30;;
12348;SDS011;5974;42.710;27.258;2024-03-22T04:09:10;5.90;;;5.30;;
12348;SDS011;5974;42.710;27.258;2024-03-22T04:11:36;6.23;;;5.63;;
12348;SDS011;5974;42.710;27.258;2024-03-22T04:14:04;6.87;;;6.17;;
12348;SDS011;5974;42.710;27.258;2024-03-22T04:16:30;6.07;;;5.37;;
12348;SDS011;5974;42.710;27.258;2024-03-22T04:18:57;6.00;;;5.50;;
12348;SDS011;5974;42.710;27.258;2024-03-22T04:21:22;6.27;;;5.67;;
12348;SDS011;5974;42.710;27.258;2024-03-22T04:23:51;6.40;;;5.77;;
12348;SDS011;5974;42.710;27.258;2024-03-22T04:26:16;6.10;;;5.50;;
12348;SDS011;5974;42.710;27.258;2024-03-22T04:28:43;6.10;;;5.57;;
12348;SDS011;5974;42.710;27.258;2024-03-22T04:31:09;6.13;;;5.53;;
12348;SDS011;5974;42.710;27.258;2024-03-22T04:33:36;5.50;;;5.00;;
12348;SDS011;5974;42.710;27.258;2024-03-22T04:36:03;5.93;;;5.43;;
12348;SDS011;5974;42.710;27.258;2024-03-22T04:38:30;5.17;;;4.67;;
12348;SDS011;5974;42.710;27.258;2024-03-22T04:40:59;5.80;;;5.20;;
12348;SDS011;5974;42.710;27.258;2024-03-22T04:43:26;5.37;;;4.87;;
12348;SDS011;5974;42.710;27.258;2024-03-22T04:45:54;5.30;;;4.80;;
12348;SDS011;5974;42.710;27.258;2024-03-22T04:48:21;6.03;;;5.47;;
12348;SDS011;5974;42.710;27.258;2024-03-22T04:50:48;5.50;;;5.00;;
12348;SDS011;5974;42.710;27.258;2024-03-22T04:53:16;5.43;;;4.70;;
12348;SDS011;5974;42.710;27.258;2024-03-22T04:55:42;5.50;;;5.00;;
12348;SDS011;5974;42.710;27.258;2024-03-22T04:58:12;4.87;;;4.47;;
12348;SDS011;5974;42.710;27.258;2024-03-22T05:00:38;9.37;;;4.80;;
12348;SDS011;5974;42.710;27.258;2024-03-22T05:03:05;5.40;;;4.90;;
12348;SDS011;5974;42.710;27.258;2024-03-22T05:05:31;4.67;;;4.23;;
12348;SDS011;5974;42.710;27.258;2024-03-22T05:07:57;4.60;;;4.20;;
12348;SDS011;5974;42.710;27.258;2024-03-22T05:10:23;4.47;;;4.07;;
12348;SDS011;5974;42.710;27.258;2024-03-22T05:12:50;4.73;;;4.33;;
12348;SDS011;5974;42.710;27.258;2024-03-22T05:15:17;4.10;;;3.80;;
12348;SDS011;5974;42.710;27.258;2024-03-22T05:17:44;4.07;;;3.77;;
12348;SDS011;5974;42.710;27.258;2024-03-22T05:20:10;4.80;;;4.40;;
12348;SDS011;5974;42.710;27.258;2024-03-22T05:22:37;5.50;;;4.50;;
12348;SDS011;5974;42.710;27.258;2024-03-22T05:25:03;4.17;;;3.80;;
12348;SDS011;5974;42.710;27.258;2024-03-22T05:27:30;4.50;;;4.20;;
12348;SDS011;5974;42.710;27.258;2024-03-22T05:29:56;3.57;;;3.30;;
12348;SDS011;5974;42.710;27.258;2024-03-22T05:32:24;3.97;;;3.67;;
12348;SDS011;5974;42.710;27.258;2024-03-22T05:34:50;4.20;;;3.70;;
12348;SDS011;5974;42.710;27.258;2024-03-22T05:37:17;4.07;;;3.77;;
12348;SDS011;5974;42.710;27.258;2024-03-22T05:39:43;4.60;;;4.20;;
12348;SDS011;5974;42.710;27.258;2024-03-22T05:42:09;4.00;;;3.70;;
12348;SDS011;5974;42.710;27.258;2024-03-22T05:44:35;4.13;;;3.83;;
12348;SDS011;5974;42.710;27.258;2024-03-22T05:47:02;3.70;;;3.40;;
12348;SDS011;5974;42.710;27.258;2024-03-22T05:49:29;4.27;;;3.60;;
12348;SDS011;5974;42.710;27.258;2024-03-22T05:51:56;4.30;;;4.00;;
12348;SDS011;5974;42.710;27.258;2024-03-22T05:54:22;3.97;;;3.67;;
12348;SDS011;5974;42.710;27.258;2024-03-22T05:56:48;4.13;;;3.70;;
12348;SDS011;5974;42.710;27.258;2024-03-22T05:59:14;3.93;;;3.63;;
12348;SDS011;5974;42.710;27.258;2024-03-22T06:01:41;4.13;;;3.83;;
12348;SDS011;5974;42.710;27.258;2024-03-22T06:04:07;4.20;;;3.80;;
12348;SDS011;5974;42.710;27.258;2024-03-22T06:06:35;4.60;;;4.20;;
12348;SDS011;5974;42.710;27.258;2024-03-22T06:09:01;4.27;;;3.97;;
12348;SDS011;5974;42.710;27.258;2024-03-22T06:11:29;4.40;;;4.10;;
12348;SDS011;5974;42.710;27.258;2024-03-22T06:13:55;4.30;;;4.00;;
12348;SDS011;5974;42.710;27.258;2024-03-22T06:16:21;4.37;;;3.97;;
12348;SDS011;5974;42.710;27.258;2024-03-22T06:18:47;4.40;;;4.10;;
12348;SDS011;5974;42.710;27.258;2024-03-22T06:21:14;4.50;;;4.20;;
12348;SDS011;5974;42.710;27.258;2024-03-22T06:23:41;4.10;;;3.80;;
12348;SDS011;5974;42.710;27.258;2024-03-22T06:26:08;3.90;;;3.50;;
12348;SDS011;5974;42.710;27.258;2024-03-22T06:28:34;4.20;;;3.80;;
12348;SDS011;5974;42.710;27.258;2024-03-22T06:31:01;4.30;;;3.90;;
12348;SDS011;5974;42.710;27.258;2024-03-22T06:33:28;3.93;;;3.63;;
12348;SDS011;5974;42.710;27.258;2024-03-22T06:35:55;3.90;;;3.60;;
12348;SDS011;5974;42.710;27.258;2024-03-22T06:38:20;3.90;;;3.60;;
12348;SDS011;5974;42.710;27.258;2024-03-22T06:40:48;4.43;;;4.03;;
12348;SDS011;5974;42.710;27.258;2024-03-22T06:43:14;4.10;;;3.80;;
12348;SDS011;5974;42.710;27.258;2024-03-22T06:45:41;4.10;;;3.80;;
12348;SDS011;5974;42.710;27.258;2024-03-22T06:48:06;4.07;;;3.77;;
12348;SDS011;5974;42.710;27.258;2024-03-22T06:50:33;3.87;;;3.57;;
12348;SDS011;5974;42.710;27.258;2024-03-22T06:52:59;3.93;;;3.63;;
12348;SDS011;5974;42.710;27.258;2024-03-22T06:55:26;3.57;;;3.27;;
12348;SDS011;5974;42.710;27.258;2024-03-22T06:57:53;3.40;;;3.17;;
12348;SDS011;5974;42.710;27.258;2024-03-22T07:00:19;4.23;;;3.30;;
12348;SDS011;5974;42.710;27.258;2024-03-22T07:02:45;3.70;;;3.40;;
12348;SDS011;5974;42.710;27.258;2024-03-22T07:05:12;3.93;;;3.63;;
12348;SDS011;5974;42.710;27.258;2024-03-22T07:07:38;4.00;;;3.70;;
12348;SDS011;5974;42.710;27.258;2024-03-22T07:10:05;3.80;;;3.50;;
12348;SDS011;5974;42.710;27.258;2024-03-22T07:12:31;3.60;;;3.40;;
12348;SDS011;5974;42.710;27.258;2024-03-22T07:15:00;3.67;;;3.37;;
12348;SDS011;5974;42.710;27.258;2024-03-22T07:17:26;3.40;;;3.20;;
12348;SDS011;5974;42.710;27.258;2024-03-22T07:19:53;3.53;;;3.23;;
12348;SDS011;5974;42.710;27.258;2024-03-22T07:22:19;3.13;;;2.93;;
12348;SDS011;5974;42.710;27.258;2024-03-22T07:24:47;3.00;;;2.80;;
12348;SDS011;5974;42.710;27.258;2024-03-22T07:27:13;3.73;;;3.17;;
12348;SDS011;5974;42.710;27.258;2024-03-22T07:29:40;3.93;;;3.17;;
12348;SDS011;5974;42.710;27.258;2024-03-22T07:32:07;3.33;;;3.03;;
12348;SDS011;5974;42.710;27.258;2024-03-22T07:34:34;3.13;;;2.83;;
12348;SDS011;5974;42.710;27.258;2024-03-22T07:37:00;3.47;;;3.17;;
12348;SDS011;5974;42.710;27.258;2024-03-22T07:39:26;2.87;;;2.53;;
12348;SDS011;5974;42.710;27.258;2024-03-22T07:41:52;3.60;;;3.30;;
12348;SDS011;5974;42.710;27.258;2024-03-22T07:44:19;3.60;;;3.30;;
12348;SDS011;5974;42.710;27.258;2024-03-22T07:46:45;3.90;;;2.93;;
12348;SDS011;5974;42.710;27.258;2024-03-22T07:49:13;3.47;;;3.17;;
12348;SDS011;5974;42.710;27.258;2024-03-22T07:51:39;3.93;;;2.90;;
12348;SDS011;5974;42.710;27.258;2024-03-22T07:54:06;3.00;;;2.80;;
12348;SDS011;5974;42.710;27.258;2024-03-22T07:56:31;2.93;;;2.73;;
12348;SDS011;5974;42.710;27.258;2024-03-22T07:58:58;3.97;;;3.67;;
12348;SDS011;5974;42.710;27.258;2024-03-22T08:01:25;3.37;;;3.17;;
12348;SDS011;5974;42.710;27.258;2024-03-22T08:03:52;3.20;;;3.00;;
12348;SDS011;5974;42.710;27.258;2024-03-22T08:06:19;4.20;;;3.90;;
12348;SDS011;5974;42.710;27.258;2024-03-22T08:08:46;3.17;;;2.97;;
12348;SDS011;5974;42.710;27.258;2024-03-22T08:11:12;2.80;;;2.60;;
12348;SDS011;5974;42.710;27.258;2024-03-22T08:13:39;3.10;;;2.67;;
12348;SDS011;5974;42.710;27.258;2024-03-22T08:16:05;3.60;;;3.30;;
12348;SDS011;5974;42.710;27.258;2024-03-22T08:18:32;4.00;;;3.70;;
12348;SDS011;5974;42.710;27.258;2024-03-22T08:20:57;3.17;;;2.90;;
12348;SDS011;5974;42.710;27.258;2024-03-22T08:23:26;3.60;;;3.30;;
12348;SDS011;5974;42.710;27.258;2024-03-22T08:25:52;3.27;;;3.07;;
12348;SDS011;5974;42.710;27.258;2024-03-22T08:28:18;3.50;;;3.30;;
12348;SDS011;5974;42.710;27.258;2024-03-22T08:30:44;3.70;;;2.97;;
12348;SDS011;5974;42.710;27.258;2024-03-22T08:33:11;4.27;;;3.87;;
12348;SDS011;5974;42.710;27.258;2024-03-22T08:35:37;3.60;;;3.30;;
12348;SDS011;5974;42.710;27.258;2024-03-22T08:38:03;3.40;;;3.07;;
12348;SDS011;5974;42.710;27.258;2024-03-22T08:40:31;3.17;;;2.90;;
12348;SDS011;5974;42.710;27.258;2024-03-22T08:42:59;3.40;;;3.07;;
12348;SDS011;5974;42.710;27.258;2024-03-22T08:45:24;3.57;;;3.27;;
12348;SDS011;5974;42.710;27.258;2024-03-22T08:47:51;3.30;;;3.10;;
12348;SDS011;5974;42.710;27.258;2024-03-22T08:50:17;4.10;;;3.40;;
12348;SDS011;5974;42.710;27.258;2024-03-22T08:52:43;3.37;;;3.17;;
12348;SDS011;5974;42.710;27.258;2024-03-22T08:55:09;3.07;;;2.77;;
12348;SDS011;5974;42.710;27.258;2024-03-22T08:57:37;3.10;;;2.90;;
12348;SDS011;5974;42.710;27.258;2024-03-22T09:00:04;3.10;;;2.80;;
12348;SDS011;5974;42.710;27.258;2024-03-22T09:02:33;3.47;;;3.00;;
12348;SDS011;5974;42.710;27.258;2024-03-22T09:05:00;3.27;;;3.00;;
12348;SDS011;5974;42.710;27.258;2024-03-22T09:07:26;3.03;;;2.83;;
12348;SDS011;5974;42.710;27.258;2024-03-22T09:09:52;3.10;;;2.80;;
12348;SDS011;5974;42.710;27.258;2024-03-22T09:12:19;3.30;;;3.10;;
12348;SDS011;5974;42.710;27.258;2024-03-22T09:14:46;2.70;;;2.60;;
12348;SDS011;5974;42.710;27.258;2024-03-22T09:17:13;3.13;;;2.90;;
12348;SDS011;5974;42.710;27.258;2024-03-22T09:19:39;2.90;;;2.70;;
12348;SDS011;5974;42.710;27.258;2024-03-22T09:22:06;3.47;;;3.17;;
12348;SDS011;5974;42.710;27.258;2024-03-22T09:24:32;3.37;;;3.17;;
12348;SDS011;5974;42.710;27.258;2024-03-22T09:26:58;3.50;;;3.20;;
12348;SDS011;5974;42.710;27.258;2024-03-22T09:29:24;2.70;;;2.50;;
12348;SDS011;5974;42.710;27.258;2024-03-22T09:31:52;2.80;;;2.60;;
12348;SDS011;5974;42.710;27.258;2024-03-22T09:34:18;2.97;;;2.77;;
12348;SDS011;5974;42.710;27.258;2024-03-22T09:36:45;3.00;;;2.80;;
12348;SDS011;5974;42.710;27.258;2024-03-22T09:39:10;2.30;;;2.10;;
12348;SDS011;5974;42.710;27.258;2024-03-22T09:41:43;4.93;;;4.50;;
12348;SDS011;5974;42.710;27.258;2024-03-22T09:44:10;8.10;;;7.30;;
12348;SDS011;5974;42.710;27.258;2024-03-22T09:46:39;5.43;;;4.90;;
12348;SDS011;5974;42.710;27.258;2024-03-22T09:49:09;2.87;;;2.67;;
12348;SDS011;5974;42.710;27.258;2024-03-22T09:51:37;5.77;;;4.97;;
12348;SDS011;5974;42.710;27.258;2024-03-22T09:54:03;2.93;;;2.73;;
12348;SDS011;5974;42.710;27.258;2024-03-22T09:56:30;7.23;;;5.07;;
12348;SDS011;5974;42.710;27.258;2024-03-22T09:58:56;3.67;;;3.40;;
12348;SDS011;5974;42.710;27.258;2024-03-22T10:01:23;3.80;;;3.50;;
12348;SDS011;5974;42.710;27.258;2024-03-22T10:03:50;2.67;;;2.50;;
12348;SDS011;5974;42.710;27.258;2024-03-22T10:06:19;3.20;;;2.50;;
12348;SDS011;5974;42.710;27.258;2024-03-22T10:08:44;2.50;;;2.40;;
12348;SDS011;5974;42.710;27.258;2024-03-22T10:11:11;2.70;;;2.50;;
12348;SDS011;5974;42.710;27.258;2024-03-22T10:13:37;2.43;;;2.33;;
12348;SDS011;5974;42.710;27.258;2024-03-22T10:16:04;2.40;;;2.20;;
12348;SDS011;5974;42.710;27.258;2024-03-22T10:18:32;2.87;;;2.67;;
12348;SDS011;5974;42.710;27.258;2024-03-22T10:21:00;2.90;;;2.70;;
12348;SDS011;5974;42.710;27.258;2024-03-22T10:23:28;3.00;;;2.80;;
12348;SDS011;5974;42.710;27.258;2024-03-22T10:25:55;2.40;;;2.30;;
12348;SDS011;5974;42.710;27.258;2024-03-22T10:28:23;2.30;;;2.20;;
12348;SDS011;5974;42.710;27.258;2024-03-22T10:30:50;2.20;;;2.10;;
12348;SDS011;5974;42.710;27.258;2024-03-22T10:33:18;2.40;;;2.30;;
12348;SDS011;5974;42.710;27.258;2024-03-22T10:35:47;2.53;;;1.90;;
12348;SDS011;5974;42.710;27.258;2024-03-22T10:38:16;2.47;;;2.20;;
12348;SDS011;5974;42.710;27.258;2024-03-22T10:40:47;2.27;;;2.17;;
12348;SDS011;5974;42.710;27.258;2024-03-22T10:43:13;2.80;;;2.60;;
12348;SDS011;5974;42.710;27.258;2024-03-22T10:45:40;2.20;;;2.10;;
12348;SDS011;5974;42.710;27.258;2024-03-22T10:48:08;2.30;;;2.10;;
12348;SDS011;5974;42.710;27.258;2024-03-22T10:50:37;2.10;;;2.00;;
12348;SDS011;5974;42.710;27.258;2024-03-22T10:53:05;2.10;;;1.60;;
12348;SDS011;5974;42.710;27.258;2024-03-22T10:55:35;2.60;;;2.40;;
12348;SDS011;5974;42.710;27.258;2024-03-22T10:58:05;2.07;;;1.97;;
12348;SDS011;5974;42.710;27.258;2024-03-22T11:00:32;2.50;;;2.30;;
12348;SDS011;5974;42.710;27.258;2024-03-22T11:03:01;2.10;;;1.93;;
12348;SDS011;5974;42.710;27.258;2024-03-22T11:05:28;1.80;;;1.70;;
12348;SDS011;5974;42.710;27.258;2024-03-22T11:07:58;2.43;;;2.23;;
12348;SDS011;5974;42.710;27.258;2024-03-22T11:10:26;2.30;;;2.03;;
12348;SDS011;5974;42.710;27.258;2024-03-22T11:12:55;2.30;;;2.10;;
12348;SDS011;5974;42.710;27.258;2024-03-22T11:15:23;2.10;;;2.00;;
12348;SDS011;5974;42.710;27.258;2024-03-22T11:17:49;2.60;;;2.40;;
12348;SDS011;5974;42.710;27.258;2024-03-22T11:20:16;2.17;;;2.03;;
12348;SDS011;5974;42.710;27.258;2024-03-22T11:22:42;2.70;;;2.50;;
12348;SDS011;5974;42.710;27.258;2024-03-22T11:25:09;4.97;;;2.70;;
12348;SDS011;5974;42.710;27.258;2024-03-22T11:27:35;7.17;;;3.07;;
12348;SDS011;5974;42.710;27.258;2024-03-22T11:30:01;2.87;;;2.40;;
12348;SDS011;5974;42.710;27.258;2024-03-22T11:32:29;2.40;;;2.20;;
12348;SDS011;5974;42.710;27.258;2024-03-22T11:34:56;1.90;;;1.80;;
12348;SDS011;5974;42.710;27.258;2024-03-22T11:37:22;2.03;;;1.93;;
12348;SDS011;5974;42.710;27.258;2024-03-22T11:39:49;1.83;;;1.73;;
12348;SDS011;5974;42.710;27.258;2024-03-22T11:42:14;1.90;;;1.80;;
12348;SDS011;5974;42.710;27.258;2024-03-22T11:44:43;1.70;;;1.60;;
12348;SDS011;5974;42.710;27.258;2024-03-22T11:47:09;1.97;;;1.87;;
12348;SDS011;5974;42.710;27.258;2024-03-22T11:49:37;1.80;;;1.70;;
12348;SDS011;5974;42.710;27.258;2024-03-22T11:52:03;1.70;;;1.60;;
12348;SDS011;5974;42.710;27.258;2024-03-22T11:54:30;1.80;;;1.70;;
12348;SDS011;5974;42.710;27.258;2024-03-22T11:56:56;1.90;;;1.80;;
12348;SDS011;5974;42.710;27.258;2024-03-22T11:59:23;1.50;;;1.40;;
12348;SDS011;5974;42.710;27.258;2024-03-22T12:01:48;1.97;;;1.87;;
12348;SDS011;5974;42.710;27.258;2024-03-22T12:04:15;1.80;;;1.70;;
12348;SDS011;5974;42.710;27.258;2024-03-22T12:06:42;1.90;;;1.80;;
12348;SDS011;5974;42.710;27.258;2024-03-22T12:09:10;1.70;;;1.60;;
12348;SDS011;5974;42.710;27.258;2024-03-22T12:11:37;1.70;;;1.60;;
12348;SDS011;5974;42.710;27.258;2024-03-22T12:14:04;1.77;;;1.67;;
12348;SDS011;5974;42.710;27.258;2024-03-22T12:16:30;2.20;;;1.80;;
12348;SDS011;5974;42.710;27.258;2024-03-22T12:18:57;2.00;;;1.90;;
12348;SDS011;5974;42.710;27.258;2024-03-22T12:21:22;1.90;;;1.80;;
12348;SDS011;5974;42.710;27.258;2024-03-22T12:23:50;1.90;;;1.80;;
12348;SDS011;5974;42.710;27.258;2024-03-22T12:26:16;3.10;;;1.70;;
12348;SDS011;5974;42.710;27.258;2024-03-22T12:28:43;1.50;;;1.47;;
12348;SDS011;5974;42.710;27.258;2024-03-22T12:31:09;1.60;;;1.50;;
12348;SDS011;5974;42.710;27.258;2024-03-22T12:33:36;2.00;;;1.90;;
12348;SDS011;5974;42.710;27.258;2024-03-22T12:36:02;1.90;;;1.80;;
12348;SDS011;5974;42.710;27.258;2024-03-22T12:38:29;2.13;;;2.03;;
12348;SDS011;5974;42.710;27.258;2024-03-22T12:40:57;2.20;;;2.00;;
12348;SDS011;5974;42.710;27.258;2024-03-22T12:43:23;2.07;;;1.83;;
12348;SDS011;5974;42.710;27.258;2024-03-22T12:45:49;2.20;;;2.10;;
12348;SDS011;5974;42.710;27.258;2024-03-22T12:48:16;2.37;;;2.27;;
12348;SDS011;5974;42.710;27.258;2024-03-22T12:50:42;2.33;;;2.00;;
12348;SDS011;5974;42.710;27.258;2024-03-22T12:53:09;2.83;;;1.90;;
12348;SDS011;5974;42.710;27.258;2024-03-22T12:55:34;4.60;;;2.33;;
12348;SDS011;5974;42.710;27.258;2024-03-22T12:58:03;3.37;;;2.30;;
12348;SDS011;5974;42.710;27.258;2024-03-22T13:00:29;2.30;;;2.20;;
12348;SDS011;5974;42.710;27.258;2024-03-22T13:02:58;2.07;;;1.97;;
12348;SDS011;5974;42.710;27.258;2024-03-22T13:05:25;2.10;;;2.00;;
12348;SDS011;5974;42.710;27.258;2024-03-22T13:07:52;1.73;;;1.63;;
12348;SDS011;5974;42.710;27.258;2024-03-22T13:10:18;2.30;;;2.20;;
12348;SDS011;5974;42.710;27.258;2024-03-22T13:12:45;1.73;;;1.63;;
12348;SDS011;5974;42.710;27.258;2024-03-22T13:15:13;2.10;;;1.77;;
12348;SDS011;5974;42.710;27.258;2024-03-22T13:17:40;1.90;;;1.80;;
12348;SDS011;5974;42.710;27.258;2024-03-22T13:20:06;1.93;;;1.83;;
12348;SDS011;5974;42.710;27.258;2024-03-22T13:22:35;1.70;;;1.60;;
12348;SDS011;5974;42.710;27.258;2024-03-22T13:25:02;1.70;;;1.60;;
12348;SDS011;5974;42.710;27.258;2024-03-22T13:27:31;1.70;;;1.60;;
12348;SDS011;5974;42.710;27.258;2024-03-22T13:29:57;2.10;;;1.70;;
12348;SDS011;5974;42.710;27.258;2024-03-22T13:32:25;1.70;;;1.60;;
12348;SDS011;5974;42.710;27.258;2024-03-22T13:34:51;2.13;;;1.70;;
12348;SDS011;5974;42.710;27.258;2024-03-22T13:37:17;2.00;;;1.90;;
12348;SDS011;5974;42.710;27.258;2024-03-22T13:39:47;2.37;;;1.90;;
12348;SDS011;5974;42.710;27.258;2024-03-22T13:42:14;2.43;;;2.00;;
12348;SDS011;5974;42.710;27.258;2024-03-22T13:44:40;2.07;;;1.97;;
12348;SDS011;5974;42.710;27.258;2024-03-22T13:47:07;4.00;;;3.60;;
12348;SDS011;5974;42.710;27.258;2024-03-22T13:49:34;1.70;;;1.60;;
12348;SDS011;5974;42.710;27.258;2024-03-22T13:52:01;2.40;;;2.20;;
12348;SDS011;5974;42.710;27.258;2024-03-22T13:54:29;2.20;;;2.00;;
12348;SDS011;5974;42.710;27.258;2024-03-22T13:56:56;2.10;;;2.00;;
12348;SDS011;5974;42.710;27.258;2024-03-22T13:59:22;2.20;;;2.10;;
12348;SDS011;5974;42.710;27.258;2024-03-22T14:01:49;2.47;;;2.37;;
12348;SDS011;5974;42.710;27.258;2024-03-22T14:04:14;2.50;;;2.30;;
12348;SDS011;5974;42.710;27.258;2024-03-22T14:06:42;2.37;;;2.27;;
12348;SDS011;5974;42.710;27.258;2024-03-22T14:09:08;3.17;;;2.87;;
12348;SDS011;5974;42.710;27.258;2024-03-22T14:11:38;2.70;;;2.50;;
12348;SDS011;5974;42.710;27.258;2024-03-22T14:14:03;2.83;;;2.50;;
12348;SDS011;5974;42.710;27.258;2024-03-22T14:16:30;2.83;;;2.63;;
12348;SDS011;5974;42.710;27.258;2024-03-22T14:18:56;2.77;;;2.57;;
12348;SDS011;5974;42.710;27.258;2024-03-22T14:21:23;3.00;;;2.80;;
12348;SDS011;5974;42.710;27.258;2024-03-22T14:23:50;2.80;;;2.60;;
12348;SDS011;5974;42.710;27.258;2024-03-22T14:26:17;2.87;;;2.67;;
12348;SDS011;5974;42.710;27.258;2024-03-22T14:28:43;2.90;;;2.70;;
12348;SDS011;5974;42.710;27.258;2024-03-22T14:31:12;4.20;;;2.70;;
12348;SDS011;5974;42.710;27.258;2024-03-22T14:33:39;3.10;;;2.90;;
12348;SDS011;5974;42.710;27.258;2024-03-22T14:36:06;3.40;;;3.10;;
12348;SDS011;5974;42.710;27.258;2024-03-22T14:38:35;3.40;;;2.97;;
12348;SDS011;5974;42.710;27.258;2024-03-22T14:41:04;3.00;;;2.80;;
12348;SDS011;5974;42.710;27.258;2024-03-22T14:43:30;3.10;;;2.90;;
12348;SDS011;5974;42.710;27.258;2024-03-22T14:45:59;3.17;;;2.93;;